sensor_id;sensor_type;location;lat;lon;timestamp;temperature;humidity
56538;DHT22;42435;53.292;6.000;2023-08-30T00:00:19;15.40;78.20
56538;DHT22;42435;53.292;6.000;2023-08-30T00:02:49;15.40;78.20
56538;DHT22;42435;53.292;6.000;2023-08-30T00:05:16;15.40;78.30
56538;DHT22;42435;53.292;6.000;2023-08-30T00:07:41;15.40;78.40
56538;DHT22;42435;53.292;6.000;2023-08-30T00:10:07;15.40;78.40
56538;DHT22;42435;53.292;6.000;2023-08-30T00:12:33;15.40;78.40
56538;DHT22;42435;53.292;6.000;2023-08-30T00:14:59;15.40;78.30
56538;DHT22;42435;53.292;6.000;2023-08-30T00:17:25;15.40;78.30
56538;DHT22;42435;53.292;6.000;2023-08-30T00:19:50;15.40;78.50
56538;DHT22;42435;53.292;6.000;2023-08-30T00:22:18;15.40;78.60
56538;DHT22;42435;53.292;6.000;2023-08-30T00:24:44;15.40;78.60
56538;DHT22;42435;53.292;6.000;2023-08-30T00:27:11;15.40;78.50
56538;DHT22;42435;53.292;6.000;2023-08-30T00:29:37;15.40;78.30
56538;DHT22;42435;53.292;6.000;2023-08-30T00:32:03;15.40;78.30
56538;DHT22;42435;53.292;6.000;2023-08-30T00:34:29;15.40;78.30
56538;DHT22;42435;53.292;6.000;2023-08-30T00:36:55;15.40;78.30
56538;DHT22;42435;53.292;6.000;2023-08-30T00:39:21;15.30;78.10
56538;DHT22;42435;53.292;6.000;2023-08-30T00:41:48;15.30;78.20
56538;DHT22;42435;53.292;6.000;2023-08-30T00:44:14;15.30;78.20
56538;DHT22;42435;53.292;6.000;2023-08-30T00:46:40;15.30;78.30
56538;DHT22;42435;53.292;6.000;2023-08-30T00:49:06;15.20;78.30
56538;DHT22;42435;53.292;6.000;2023-08-30T00:51:33;15.20;78.40
56538;DHT22;42435;53.292;6.000;2023-08-30T00:54:00;15.10;78.60
56538;DHT22;42435;53.292;6.000;2023-08-30T00:56:27;15.20;78.80
56538;DHT22;42435;53.292;6.000;2023-08-30T00:58:53;15.10;78.80
56538;DHT22;42435;53.292;6.000;2023-08-30T01:01:19;15.10;78.80
56538;DHT22;42435;53.292;6.000;2023-08-30T01:03:45;15.10;78.70
56538;DHT22;42435;53.292;6.000;2023-08-30T01:06:11;15.10;78.60
56538;DHT22;42435;53.292;6.000;2023-08-30T01:08:37;15.00;78.50
56538;DHT22;42435;53.292;6.000;2023-08-30T01:13:44;14.90;78.60
56538;DHT22;42435;53.292;6.000;2023-08-30T01:16:13;14.90;78.50
56538;DHT22;42435;53.292;6.000;2023-08-30T01:18:41;14.90;78.50
56538;DHT22;42435;53.292;6.000;2023-08-30T01:21:14;14.80;78.70
56538;DHT22;42435;53.292;6.000;2023-08-30T01:23:49;14.80;78.90
56538;DHT22;42435;53.292;6.000;2023-08-30T01:29:20;14.70;79.10
56538;DHT22;42435;53.292;6.000;2023-08-30T01:31:49;14.70;79.10
56538;DHT22;42435;53.292;6.000;2023-08-30T01:34:16;14.60;79.30
56538;DHT22;42435;53.292;6.000;2023-08-30T01:36:42;14.60;79.30
56538;DHT22;42435;53.292;6.000;2023-08-30T01:39:10;14.60;79.40
56538;DHT22;42435;53.292;6.000;2023-08-30T01:41:37;14.50;79.50
56538;DHT22;42435;53.292;6.000;2023-08-30T01:44:05;14.50;79.50
56538;DHT22;42435;53.292;6.000;2023-08-30T01:46:33;14.50;79.60
56538;DHT22;42435;53.292;6.000;2023-08-30T01:49:01;14.40;79.70
56538;DHT22;42435;53.292;6.000;2023-08-30T01:51:28;14.40;79.90
56538;DHT22;42435;53.292;6.000;2023-08-30T01:53:55;14.40;80.00
56538;DHT22;42435;53.292;6.000;2023-08-30T01:56:21;14.40;80.10
56538;DHT22;42435;53.292;6.000;2023-08-30T01:58:47;14.40;80.10
56538;DHT22;42435;53.292;6.000;2023-08-30T02:01:12;14.40;80.20
56538;DHT22;42435;53.292;6.000;2023-08-30T02:03:38;14.40;80.20
56538;DHT22;42435;53.292;6.000;2023-08-30T02:06:28;14.40;80.30
56538;DHT22;42435;53.292;6.000;2023-08-30T02:09:01;14.40;80.50
56538;DHT22;42435;53.292;6.000;2023-08-30T02:11:34;14.50;80.30
56538;DHT22;42435;53.292;6.000;2023-08-30T02:14:01;14.40;80.30
56538;DHT22;42435;53.292;6.000;2023-08-30T02:16:31;14.40;80.20
56538;DHT22;42435;53.292;6.000;2023-08-30T02:18:57;14.40;80.20
56538;DHT22;42435;53.292;6.000;2023-08-30T02:21:24;14.40;80.10
56538;DHT22;42435;53.292;6.000;2023-08-30T02:23:50;14.40;80.00
56538;DHT22;42435;53.292;6.000;2023-08-30T02:26:19;14.40;80.00
56538;DHT22;42435;53.292;6.000;2023-08-30T02:28:44;14.30;79.90
56538;DHT22;42435;53.292;6.000;2023-08-30T02:31:10;14.30;79.90
56538;DHT22;42435;53.292;6.000;2023-08-30T02:33:35;14.30;79.80
56538;DHT22;42435;53.292;6.000;2023-08-30T02:36:03;14.20;79.80
56538;DHT22;42435;53.292;6.000;2023-08-30T02:38:28;14.20;79.90
56538;DHT22;42435;53.292;6.000;2023-08-30T02:40:54;14.10;80.00
56538;DHT22;42435;53.292;6.000;2023-08-30T02:43:20;14.10;80.10
56538;DHT22;42435;53.292;6.000;2023-08-30T02:45:45;14.10;80.20
56538;DHT22;42435;53.292;6.000;2023-08-30T02:48:11;14.10;80.20
56538;DHT22;42435;53.292;6.000;2023-08-30T02:50:36;14.00;80.20
56538;DHT22;42435;53.292;6.000;2023-08-30T02:53:02;14.00;80.20
56538;DHT22;42435;53.292;6.000;2023-08-30T02:55:30;14.00;80.20
56538;DHT22;42435;53.292;6.000;2023-08-30T02:57:56;14.00;80.30
56538;DHT22;42435;53.292;6.000;2023-08-30T03:00:21;13.90;80.40
56538;DHT22;42435;53.292;6.000;2023-08-30T03:02:50;13.90;80.40
56538;DHT22;42435;53.292;6.000;2023-08-30T03:05:17;13.90;80.50
56538;DHT22;42435;53.292;6.000;2023-08-30T03:07:42;13.90;80.50
56538;DHT22;42435;53.292;6.000;2023-08-30T03:10:09;13.90;80.60
56538;DHT22;42435;53.292;6.000;2023-08-30T03:12:34;13.90;80.80
56538;DHT22;42435;53.292;6.000;2023-08-30T03:15:00;13.90;80.90
56538;DHT22;42435;53.292;6.000;2023-08-30T03:17:26;13.90;81.00
56538;DHT22;42435;53.292;6.000;2023-08-30T03:19:54;13.90;81.10
56538;DHT22;42435;53.292;6.000;2023-08-30T03:22:20;13.90;81.20
56538;DHT22;42435;53.292;6.000;2023-08-30T03:24:45;14.00;81.20
56538;DHT22;42435;53.292;6.000;2023-08-30T03:27:11;14.00;81.20
56538;DHT22;42435;53.292;6.000;2023-08-30T03:29:36;14.10;81.10
56538;DHT22;42435;53.292;6.000;2023-08-30T03:32:02;14.10;81.00
56538;DHT22;42435;53.292;6.000;2023-08-30T03:34:28;14.20;81.00
56538;DHT22;42435;53.292;6.000;2023-08-30T03:36:53;14.20;80.90
56538;DHT22;42435;53.292;6.000;2023-08-30T03:39:22;14.20;80.70
56538;DHT22;42435;53.292;6.000;2023-08-30T03:41:48;14.20;80.60
56538;DHT22;42435;53.292;6.000;2023-08-30T03:44:13;14.30;80.50
56538;DHT22;42435;53.292;6.000;2023-08-30T03:46:39;14.30;80.40
56538;DHT22;42435;53.292;6.000;2023-08-30T03:49:04;14.30;80.30
56538;DHT22;42435;53.292;6.000;2023-08-30T03:51:30;14.30;80.20
56538;DHT22;42435;53.292;6.000;2023-08-30T03:53:55;14.30;80.10
56538;DHT22;42435;53.292;6.000;2023-08-30T03:56:24;14.40;80.00
56538;DHT22;42435;53.292;6.000;2023-08-30T03:58:50;14.40;80.00
56538;DHT22;42435;53.292;6.000;2023-08-30T04:01:15;14.40;79.80
56538;DHT22;42435;53.292;6.000;2023-08-30T04:03:41;14.40;79.70
56538;DHT22;42435;53.292;6.000;2023-08-30T04:06:07;14.40;79.70
56538;DHT22;42435;53.292;6.000;2023-08-30T04:08:32;14.50;79.60
56538;DHT22;42435;53.292;6.000;2023-08-30T04:10:58;14.40;79.60
56538;DHT22;42435;53.292;6.000;2023-08-30T04:13:24;14.50;79.50
56538;DHT22;42435;53.292;6.000;2023-08-30T04:15:51;14.50;79.50
56538;DHT22;42435;53.292;6.000;2023-08-30T04:18:17;14.50;79.50
56538;DHT22;42435;53.292;6.000;2023-08-30T04:20:44;14.60;79.50
56538;DHT22;42435;53.292;6.000;2023-08-30T04:23:10;14.60;79.60
56538;DHT22;42435;53.292;6.000;2023-08-30T04:25:36;14.60;79.80
56538;DHT22;42435;53.292;6.000;2023-08-30T04:28:02;14.60;80.00
56538;DHT22;42435;53.292;6.000;2023-08-30T04:30:28;14.60;80.20
56538;DHT22;42435;53.292;6.000;2023-08-30T04:32:54;14.60;80.50
56538;DHT22;42435;53.292;6.000;2023-08-30T04:35:20;14.50;80.60
56538;DHT22;42435;53.292;6.000;2023-08-30T04:37:46;14.50;80.70
56538;DHT22;42435;53.292;6.000;2023-08-30T04:40:12;14.60;80.90
56538;DHT22;42435;53.292;6.000;2023-08-30T04:42:38;14.60;81.00
56538;DHT22;42435;53.292;6.000;2023-08-30T04:45:06;14.60;81.10
56538;DHT22;42435;53.292;6.000;2023-08-30T04:47:32;14.60;81.10
56538;DHT22;42435;53.292;6.000;2023-08-30T04:49:58;14.60;81.10
56538;DHT22;42435;53.292;6.000;2023-08-30T04:52:24;14.70;81.10
56538;DHT22;42435;53.292;6.000;2023-08-30T04:54:49;14.60;81.00
56538;DHT22;42435;53.292;6.000;2023-08-30T04:57:16;14.70;81.00
56538;DHT22;42435;53.292;6.000;2023-08-30T04:59:42;14.70;81.00
56538;DHT22;42435;53.292;6.000;2023-08-30T05:02:08;14.70;81.00
56538;DHT22;42435;53.292;6.000;2023-08-30T05:04:34;14.70;81.00
56538;DHT22;42435;53.292;6.000;2023-08-30T05:07:01;14.70;81.00
56538;DHT22;42435;53.292;6.000;2023-08-30T05:09:28;14.70;81.00
56538;DHT22;42435;53.292;6.000;2023-08-30T05:11:54;14.70;81.00
56538;DHT22;42435;53.292;6.000;2023-08-30T05:14:20;14.70;81.10
56538;DHT22;42435;53.292;6.000;2023-08-30T05:16:46;14.70;81.10
56538;DHT22;42435;53.292;6.000;2023-08-30T05:19:11;14.70;81.00
56538;DHT22;42435;53.292;6.000;2023-08-30T05:21:37;14.70;81.00
56538;DHT22;42435;53.292;6.000;2023-08-30T05:24:03;14.70;80.90
56538;DHT22;42435;53.292;6.000;2023-08-30T05:26:31;14.70;80.90
56538;DHT22;42435;53.292;6.000;2023-08-30T05:28:56;14.70;80.90
56538;DHT22;42435;53.292;6.000;2023-08-30T05:31:22;14.80;80.90
56538;DHT22;42435;53.292;6.000;2023-08-30T05:33:47;14.80;80.80
56538;DHT22;42435;53.292;6.000;2023-08-30T05:36:13;14.70;80.90
56538;DHT22;42435;53.292;6.000;2023-08-30T05:38:38;14.80;80.90
56538;DHT22;42435;53.292;6.000;2023-08-30T05:41:04;14.80;80.90
56538;DHT22;42435;53.292;6.000;2023-08-30T05:43:29;14.80;80.80
56538;DHT22;42435;53.292;6.000;2023-08-30T05:45:55;14.80;80.90
56538;DHT22;42435;53.292;6.000;2023-08-30T05:48:26;14.80;80.90
56538;DHT22;42435;53.292;6.000;2023-08-30T05:50:52;14.90;80.90
56538;DHT22;42435;53.292;6.000;2023-08-30T05:53:19;14.90;81.00
56538;DHT22;42435;53.292;6.000;2023-08-30T05:55:45;14.90;80.90
56538;DHT22;42435;53.292;6.000;2023-08-30T05:58:11;14.90;80.90
56538;DHT22;42435;53.292;6.000;2023-08-30T06:00:37;14.90;80.90
56538;DHT22;42435;53.292;6.000;2023-08-30T06:03:03;14.90;80.80
56538;DHT22;42435;53.292;6.000;2023-08-30T06:05:29;14.90;80.90
56538;DHT22;42435;53.292;6.000;2023-08-30T06:07:54;15.00;80.80
56538;DHT22;42435;53.292;6.000;2023-08-30T06:10:20;15.00;80.80
56538;DHT22;42435;53.292;6.000;2023-08-30T06:12:46;15.00;80.60
56538;DHT22;42435;53.292;6.000;2023-08-30T06:15:11;15.10;80.50
56538;DHT22;42435;53.292;6.000;2023-08-30T06:17:37;15.10;80.50
56538;DHT22;42435;53.292;6.000;2023-08-30T06:20:03;15.10;80.50
56538;DHT22;42435;53.292;6.000;2023-08-30T06:22:28;15.10;80.30
56538;DHT22;42435;53.292;6.000;2023-08-30T06:24:57;15.10;80.30
56538;DHT22;42435;53.292;6.000;2023-08-30T06:27:23;15.20;80.30
56538;DHT22;42435;53.292;6.000;2023-08-30T06:29:49;15.20;80.20
56538;DHT22;42435;53.292;6.000;2023-08-30T06:32:16;15.20;80.10
56538;DHT22;42435;53.292;6.000;2023-08-30T06:34:42;15.20;80.00
56538;DHT22;42435;53.292;6.000;2023-08-30T06:37:08;15.20;79.80
56538;DHT22;42435;53.292;6.000;2023-08-30T06:39:34;15.30;79.80
56538;DHT22;42435;53.292;6.000;2023-08-30T06:42:00;15.40;79.70
56538;DHT22;42435;53.292;6.000;2023-08-30T06:44:26;15.40;79.60
56538;DHT22;42435;53.292;6.000;2023-08-30T06:46:53;15.40;79.40
56538;DHT22;42435;53.292;6.000;2023-08-30T06:49:19;15.50;79.30
56538;DHT22;42435;53.292;6.000;2023-08-30T06:51:45;15.60;79.20
56538;DHT22;42435;53.292;6.000;2023-08-30T06:54:11;15.70;78.80
56538;DHT22;42435;53.292;6.000;2023-08-30T06:56:36;15.70;78.60
56538;DHT22;42435;53.292;6.000;2023-08-30T06:59:05;15.80;78.50
56538;DHT22;42435;53.292;6.000;2023-08-30T07:01:31;15.90;78.50
56538;DHT22;42435;53.292;6.000;2023-08-30T07:03:57;16.10;78.20
56538;DHT22;42435;53.292;6.000;2023-08-30T07:06:22;16.40;78.10
56538;DHT22;42435;53.292;6.000;2023-08-30T07:08:48;16.60;77.20
56538;DHT22;42435;53.292;6.000;2023-08-30T07:11:16;16.90;76.60
56538;DHT22;42435;53.292;6.000;2023-08-30T07:13:41;17.10;75.90
56538;DHT22;42435;53.292;6.000;2023-08-30T07:16:07;17.40;75.00
56538;DHT22;42435;53.292;6.000;2023-08-30T07:18:32;17.60;74.40
56538;DHT22;42435;53.292;6.000;2023-08-30T07:21:02;17.80;73.90
56538;DHT22;42435;53.292;6.000;2023-08-30T07:23:28;17.90;73.00
56538;DHT22;42435;53.292;6.000;2023-08-30T07:25:54;18.00;72.30
56538;DHT22;42435;53.292;6.000;2023-08-30T07:28:20;18.20;72.00
56538;DHT22;42435;53.292;6.000;2023-08-30T07:30:45;18.30;71.30
56538;DHT22;42435;53.292;6.000;2023-08-30T07:33:11;18.20;70.60
56538;DHT22;42435;53.292;6.000;2023-08-30T07:35:36;18.20;70.40
56538;DHT22;42435;53.292;6.000;2023-08-30T07:38:02;18.20;70.10
56538;DHT22;42435;53.292;6.000;2023-08-30T07:40:28;18.10;70.40
56538;DHT22;42435;53.292;6.000;2023-08-30T07:42:57;18.00;70.50
56538;DHT22;42435;53.292;6.000;2023-08-30T07:45:22;18.00;70.70
56538;DHT22;42435;53.292;6.000;2023-08-30T07:47:48;18.00;70.80
56538;DHT22;42435;53.292;6.000;2023-08-30T07:50:14;18.00;70.90
56538;DHT22;42435;53.292;6.000;2023-08-30T07:52:39;18.00;70.70
56538;DHT22;42435;53.292;6.000;2023-08-30T07:55:05;18.00;70.80
56538;DHT22;42435;53.292;6.000;2023-08-30T07:57:30;18.10;70.80
56538;DHT22;42435;53.292;6.000;2023-08-30T07:59:56;18.10;70.50
56538;DHT22;42435;53.292;6.000;2023-08-30T08:02:21;18.20;70.30
56538;DHT22;42435;53.292;6.000;2023-08-30T08:04:50;18.20;70.10
56538;DHT22;42435;53.292;6.000;2023-08-30T08:07:17;18.20;69.60
56538;DHT22;42435;53.292;6.000;2023-08-30T08:09:42;18.20;69.60
56538;DHT22;42435;53.292;6.000;2023-08-30T08:12:08;18.20;69.70
56538;DHT22;42435;53.292;6.000;2023-08-30T08:14:34;18.20;69.80
56538;DHT22;42435;53.292;6.000;2023-08-30T08:17:00;18.20;69.60
56538;DHT22;42435;53.292;6.000;2023-08-30T08:19:25;18.20;69.70
56538;DHT22;42435;53.292;6.000;2023-08-30T08:21:51;18.20;69.50
56538;DHT22;42435;53.292;6.000;2023-08-30T08:24:18;18.30;69.60
56538;DHT22;42435;53.292;6.000;2023-08-30T08:26:44;18.30;69.70
56538;DHT22;42435;53.292;6.000;2023-08-30T08:29:10;18.40;69.50
56538;DHT22;42435;53.292;6.000;2023-08-30T08:31:35;18.40;69.40
56538;DHT22;42435;53.292;6.000;2023-08-30T08:34:11;18.40;69.50
56538;DHT22;42435;53.292;6.000;2023-08-30T08:36:42;18.50;69.60
56538;DHT22;42435;53.292;6.000;2023-08-30T08:39:07;18.60;69.30
56538;DHT22;42435;53.292;6.000;2023-08-30T08:41:42;18.70;69.20
56538;DHT22;42435;53.292;6.000;2023-08-30T08:44:08;18.70;69.10
56538;DHT22;42435;53.292;6.000;2023-08-30T08:46:35;18.90;69.00
56538;DHT22;42435;53.292;6.000;2023-08-30T08:49:12;18.90;68.80
56538;DHT22;42435;53.292;6.000;2023-08-30T08:51:43;18.90;69.00
56538;DHT22;42435;53.292;6.000;2023-08-30T08:54:09;19.00;68.80
56538;DHT22;42435;53.292;6.000;2023-08-30T08:56:36;18.90;68.60
56538;DHT22;42435;53.292;6.000;2023-08-30T08:59:03;18.90;68.60
56538;DHT22;42435;53.292;6.000;2023-08-30T09:01:31;18.90;68.70
56538;DHT22;42435;53.292;6.000;2023-08-30T09:03:59;18.70;68.70
56538;DHT22;42435;53.292;6.000;2023-08-30T09:06:25;18.60;68.80
56538;DHT22;42435;53.292;6.000;2023-08-30T09:08:50;18.50;69.00
56538;DHT22;42435;53.292;6.000;2023-08-30T09:11:16;18.40;69.30
56538;DHT22;42435;53.292;6.000;2023-08-30T09:13:45;18.30;69.70
56538;DHT22;42435;53.292;6.000;2023-08-30T09:16:14;18.10;70.20
56538;DHT22;42435;53.292;6.000;2023-08-30T09:18:44;18.10;70.70
56538;DHT22;42435;53.292;6.000;2023-08-30T09:21:10;17.90;71.00
56538;DHT22;42435;53.292;6.000;2023-08-30T09:23:36;17.90;71.20
56538;DHT22;42435;53.292;6.000;2023-08-30T09:26:03;17.90;71.20
56538;DHT22;42435;53.292;6.000;2023-08-30T09:28:29;17.80;71.30
56538;DHT22;42435;53.292;6.000;2023-08-30T09:30:58;17.80;71.40
56538;DHT22;42435;53.292;6.000;2023-08-30T09:33:32;17.70;71.40
56538;DHT22;42435;53.292;6.000;2023-08-30T09:36:01;17.70;71.60
56538;DHT22;42435;53.292;6.000;2023-08-30T09:38:27;17.70;71.40
56538;DHT22;42435;53.292;6.000;2023-08-30T09:41:02;17.70;71.10
56538;DHT22;42435;53.292;6.000;2023-08-30T09:43:28;17.80;71.20
56538;DHT22;42435;53.292;6.000;2023-08-30T09:45:53;17.80;71.20
56538;DHT22;42435;53.292;6.000;2023-08-30T09:48:22;17.90;71.20
56538;DHT22;42435;53.292;6.000;2023-08-30T09:50:53;17.90;71.10
56538;DHT22;42435;53.292;6.000;2023-08-30T09:53:25;17.90;71.30
56538;DHT22;42435;53.292;6.000;2023-08-30T09:55:53;17.90;71.30
56538;DHT22;42435;53.292;6.000;2023-08-30T09:58:21;17.90;71.30
56538;DHT22;42435;53.292;6.000;2023-08-30T10:00:50;18.00;71.20
56538;DHT22;42435;53.292;6.000;2023-08-30T10:03:16;17.90;71.10
56538;DHT22;42435;53.292;6.000;2023-08-30T10:05:45;18.00;71.10
56538;DHT22;42435;53.292;6.000;2023-08-30T10:08:11;17.90;71.20
56538;DHT22;42435;53.292;6.000;2023-08-30T10:10:39;18.00;71.50
56538;DHT22;42435;53.292;6.000;2023-08-30T10:13:05;18.00;72.00
56538;DHT22;42435;53.292;6.000;2023-08-30T10:15:33;18.00;72.60
56538;DHT22;42435;53.292;6.000;2023-08-30T10:18:01;18.00;72.70
56538;DHT22;42435;53.292;6.000;2023-08-30T10:20:28;18.00;72.80
56538;DHT22;42435;53.292;6.000;2023-08-30T10:22:55;18.00;73.20
56538;DHT22;42435;53.292;6.000;2023-08-30T10:25:27;18.00;73.10
56538;DHT22;42435;53.292;6.000;2023-08-30T10:27:56;18.10;73.30
56538;DHT22;42435;53.292;6.000;2023-08-30T10:30:23;18.10;73.50
56538;DHT22;42435;53.292;6.000;2023-08-30T10:32:50;18.20;73.50
56538;DHT22;42435;53.292;6.000;2023-08-30T10:35:18;18.30;73.60
56538;DHT22;42435;53.292;6.000;2023-08-30T10:37:54;18.40;73.90
56538;DHT22;42435;53.292;6.000;2023-08-30T10:40:21;18.40;74.00
56538;DHT22;42435;53.292;6.000;2023-08-30T10:43:01;18.50;73.60
56538;DHT22;42435;53.292;6.000;2023-08-30T10:45:29;18.60;72.50
56538;DHT22;42435;53.292;6.000;2023-08-30T10:47:57;18.60;72.00
56538;DHT22;42435;53.292;6.000;2023-08-30T10:50:30;18.70;71.80
56538;DHT22;42435;53.292;6.000;2023-08-30T10:52:56;18.70;71.80
56538;DHT22;42435;53.292;6.000;2023-08-30T10:55:25;18.70;71.70
56538;DHT22;42435;53.292;6.000;2023-08-30T10:58:01;18.60;71.60
56538;DHT22;42435;53.292;6.000;2023-08-30T11:00:31;18.60;71.80
56538;DHT22;42435;53.292;6.000;2023-08-30T11:02:57;18.50;71.70
56538;DHT22;42435;53.292;6.000;2023-08-30T11:05:24;18.40;71.80
56538;DHT22;42435;53.292;6.000;2023-08-30T11:07:50;18.40;72.00
56538;DHT22;42435;53.292;6.000;2023-08-30T11:10:17;18.40;72.50
56538;DHT22;42435;53.292;6.000;2023-08-30T11:12:43;18.30;72.50
56538;DHT22;42435;53.292;6.000;2023-08-30T11:15:10;18.30;72.30
56538;DHT22;42435;53.292;6.000;2023-08-30T11:17:36;18.40;72.40
56538;DHT22;42435;53.292;6.000;2023-08-30T11:20:10;18.40;72.50
56538;DHT22;42435;53.292;6.000;2023-08-30T11:22:39;18.40;72.60
56538;DHT22;42435;53.292;6.000;2023-08-30T11:25:05;18.50;72.50
56538;DHT22;42435;53.292;6.000;2023-08-30T11:27:31;18.40;72.30
56538;DHT22;42435;53.292;6.000;2023-08-30T11:30:00;18.40;72.20
56538;DHT22;42435;53.292;6.000;2023-08-30T11:32:31;18.40;72.50
56538;DHT22;42435;53.292;6.000;2023-08-30T11:34:57;18.50;72.60
56538;DHT22;42435;53.292;6.000;2023-08-30T11:37:27;18.50;72.70
56538;DHT22;42435;53.292;6.000;2023-08-30T11:39:54;18.60;72.80
56538;DHT22;42435;53.292;6.000;2023-08-30T11:42:21;18.70;72.50
56538;DHT22;42435;53.292;6.000;2023-08-30T11:44:47;18.70;72.10
56538;DHT22;42435;53.292;6.000;2023-08-30T11:47:24;18.70;71.50
56538;DHT22;42435;53.292;6.000;2023-08-30T11:49:52;18.80;71.50
56538;DHT22;42435;53.292;6.000;2023-08-30T11:52:19;18.80;71.60
56538;DHT22;42435;53.292;6.000;2023-08-30T11:54:49;18.80;71.80
56538;DHT22;42435;53.292;6.000;2023-08-30T11:57:16;18.80;72.30
56538;DHT22;42435;53.292;6.000;2023-08-30T11:59:42;18.90;72.40
56538;DHT22;42435;53.292;6.000;2023-08-30T12:02:08;18.90;72.30
56538;DHT22;42435;53.292;6.000;2023-08-30T12:04:41;18.80;72.20
56538;DHT22;42435;53.292;6.000;2023-08-30T12:07:07;18.80;72.20
56538;DHT22;42435;53.292;6.000;2023-08-30T12:09:33;18.80;72.20
56538;DHT22;42435;53.292;6.000;2023-08-30T12:12:22;18.70;72.30
56538;DHT22;42435;53.292;6.000;2023-08-30T12:14:54;18.70;72.60
56538;DHT22;42435;53.292;6.000;2023-08-30T12:17:21;18.60;72.80
56538;DHT22;42435;53.292;6.000;2023-08-30T12:19:54;18.60;73.00
56538;DHT22;42435;53.292;6.000;2023-08-30T12:22:20;18.60;72.90
56538;DHT22;42435;53.292;6.000;2023-08-30T12:24:46;18.50;73.10
56538;DHT22;42435;53.292;6.000;2023-08-30T12:27:14;18.50;73.20
56538;DHT22;42435;53.292;6.000;2023-08-30T12:29:41;18.40;73.50
56538;DHT22;42435;53.292;6.000;2023-08-30T12:32:07;18.40;73.60
56538;DHT22;42435;53.292;6.000;2023-08-30T12:34:33;18.40;73.70
56538;DHT22;42435;53.292;6.000;2023-08-30T12:36:59;18.40;73.80
56538;DHT22;42435;53.292;6.000;2023-08-30T12:39:25;18.40;74.10
56538;DHT22;42435;53.292;6.000;2023-08-30T12:41:51;18.30;74.50
56538;DHT22;42435;53.292;6.000;2023-08-30T12:44:16;18.40;74.80
56538;DHT22;42435;53.292;6.000;2023-08-30T12:46:42;18.40;75.10
56538;DHT22;42435;53.292;6.000;2023-08-30T12:49:07;18.40;75.40
56538;DHT22;42435;53.292;6.000;2023-08-30T12:51:33;18.40;75.40
56538;DHT22;42435;53.292;6.000;2023-08-30T12:53:59;18.50;75.60
56538;DHT22;42435;53.292;6.000;2023-08-30T12:56:24;18.50;75.50
56538;DHT22;42435;53.292;6.000;2023-08-30T12:58:50;18.60;75.60
56538;DHT22;42435;53.292;6.000;2023-08-30T13:01:16;18.60;75.60
56538;DHT22;42435;53.292;6.000;2023-08-30T13:03:42;18.70;75.80
56538;DHT22;42435;53.292;6.000;2023-08-30T13:06:07;18.80;75.30
56538;DHT22;42435;53.292;6.000;2023-08-30T13:08:33;18.80;74.50
56538;DHT22;42435;53.292;6.000;2023-08-30T13:11:02;18.90;74.00
56538;DHT22;42435;53.292;6.000;2023-08-30T13:13:27;18.90;73.90
56538;DHT22;42435;53.292;6.000;2023-08-30T13:15:53;18.90;73.80
56538;DHT22;42435;53.292;6.000;2023-08-30T13:18:19;18.90;73.90
56538;DHT22;42435;53.292;6.000;2023-08-30T13:20:44;18.90;73.90
56538;DHT22;42435;53.292;6.000;2023-08-30T13:23:10;18.90;73.70
56538;DHT22;42435;53.292;6.000;2023-08-30T13:25:40;18.90;74.10
56538;DHT22;42435;53.292;6.000;2023-08-30T13:28:06;19.00;73.70
56538;DHT22;42435;53.292;6.000;2023-08-30T13:30:32;19.00;73.90
56538;DHT22;42435;53.292;6.000;2023-08-30T13:32:58;19.10;74.30
56538;DHT22;42435;53.292;6.000;2023-08-30T13:35:24;19.30;74.10
56538;DHT22;42435;53.292;6.000;2023-08-30T13:37:50;19.40;73.90
56538;DHT22;42435;53.292;6.000;2023-08-30T13:40:15;19.60;73.30
56538;DHT22;42435;53.292;6.000;2023-08-30T13:42:41;19.90;72.70
56538;DHT22;42435;53.292;6.000;2023-08-30T13:45:07;20.00;72.20
56538;DHT22;42435;53.292;6.000;2023-08-30T13:47:35;20.10;72.10
56538;DHT22;42435;53.292;6.000;2023-08-30T13:50:00;20.30;71.90
56538;DHT22;42435;53.292;6.000;2023-08-30T13:52:26;20.50;71.50
56538;DHT22;42435;53.292;6.000;2023-08-30T13:54:52;20.60;71.00
56538;DHT22;42435;53.292;6.000;2023-08-30T13:57:17;20.80;70.60
56538;DHT22;42435;53.292;6.000;2023-08-30T13:59:43;21.00;70.30
56538;DHT22;42435;53.292;6.000;2023-08-30T14:02:08;21.10;69.40
56538;DHT22;42435;53.292;6.000;2023-08-30T14:04:34;21.40;68.90
56538;DHT22;42435;53.292;6.000;2023-08-30T14:07:02;21.40;68.10
56538;DHT22;42435;53.292;6.000;2023-08-30T14:09:29;21.40;67.30
56538;DHT22;42435;53.292;6.000;2023-08-30T14:11:55;21.50;67.30
56538;DHT22;42435;53.292;6.000;2023-08-30T14:14:22;21.50;66.60
56538;DHT22;42435;53.292;6.000;2023-08-30T14:16:53;21.60;66.20
56538;DHT22;42435;53.292;6.000;2023-08-30T14:19:19;21.60;66.50
56538;DHT22;42435;53.292;6.000;2023-08-30T14:21:44;21.70;65.80
56538;DHT22;42435;53.292;6.000;2023-08-30T14:24:10;21.60;66.40
56538;DHT22;42435;53.292;6.000;2023-08-30T14:26:37;21.50;65.80
56538;DHT22;42435;53.292;6.000;2023-08-30T14:29:02;21.50;65.20
56538;DHT22;42435;53.292;6.000;2023-08-30T14:31:28;21.40;65.30
56538;DHT22;42435;53.292;6.000;2023-08-30T14:33:55;21.30;65.40
56538;DHT22;42435;53.292;6.000;2023-08-30T14:36:24;21.20;65.60
56538;DHT22;42435;53.292;6.000;2023-08-30T14:38:49;21.10;66.30
56538;DHT22;42435;53.292;6.000;2023-08-30T14:41:15;21.00;67.00
56538;DHT22;42435;53.292;6.000;2023-08-30T14:43:43;21.00;67.50
56538;DHT22;42435;53.292;6.000;2023-08-30T14:46:08;21.00;67.50
56538;DHT22;42435;53.292;6.000;2023-08-30T14:48:34;20.90;66.70
56538;DHT22;42435;53.292;6.000;2023-08-30T14:51:01;20.70;67.10
56538;DHT22;42435;53.292;6.000;2023-08-30T14:53:27;20.60;67.10
56538;DHT22;42435;53.292;6.000;2023-08-30T14:55:53;20.50;66.80
56538;DHT22;42435;53.292;6.000;2023-08-30T14:58:20;20.50;66.90
56538;DHT22;42435;53.292;6.000;2023-08-30T15:00:49;20.50;66.30
56538;DHT22;42435;53.292;6.000;2023-08-30T15:03:15;20.60;65.60
56538;DHT22;42435;53.292;6.000;2023-08-30T15:05:41;20.70;64.80
56538;DHT22;42435;53.292;6.000;2023-08-30T15:08:07;20.80;63.70
56538;DHT22;42435;53.292;6.000;2023-08-30T15:10:33;20.80;63.20
56538;DHT22;42435;53.292;6.000;2023-08-30T15:12:58;20.80;63.40
56538;DHT22;42435;53.292;6.000;2023-08-30T15:15:25;20.80;63.10
56538;DHT22;42435;53.292;6.000;2023-08-30T15:17:51;20.80;62.80
56538;DHT22;42435;53.292;6.000;2023-08-30T15:20:16;20.80;63.20
56538;DHT22;42435;53.292;6.000;2023-08-30T15:22:42;20.80;63.00
56538;DHT22;42435;53.292;6.000;2023-08-30T15:25:08;20.90;62.40
56538;DHT22;42435;53.292;6.000;2023-08-30T15:27:34;20.90;62.00
56538;DHT22;42435;53.292;6.000;2023-08-30T15:30:00;20.90;61.70
56538;DHT22;42435;53.292;6.000;2023-08-30T15:32:26;21.00;61.80